Time;durP1;ratioP1;P1;durP2;ratioP2;P2;SDS_P1;SDS_P2;PMS_P1;PMS_P2;Temp;Humidity;BMP_temperature;BMP_pressure;BME280_temperature;BME280_humidity;BME280_pressure;Samples;Min_cycle;Max_cycle;Signal;HPM_P1;HPM_P2
2023/06/29 00:01:26;;;;;;;2.67;2.03;;;18.20;83.90;;;;;;5007218;28;20026;-75
2023/06/29 00:03:52;;;;;;;4.50;2.42;;;18.20;84.10;;;;;;5009434;28;20051;-75
2023/06/29 00:06:18;;;;;;;4.78;2.45;;;18.10;84.10;;;;;;5008095;28;20022;-75
2023/06/29 00:08:43;;;;;;;5.78;2.33;;;18.00;84.30;;;;;;4993870;28;20087;-77
2023/06/29 00:11:09;;;;;;;5.78;2.33;;;18.10;84.50;;;;;;5004117;28;20076;-75
2023/06/29 00:13:35;;;;;;;5.38;2.58;;;18.00;84.60;;;;;;5010056;28;20461;-75
2023/06/29 00:16:01;;;;;;;2.67;1.90;;;17.90;84.70;;;;;;5008066;28;20030;-75
2023/06/29 00:18:30;;;;;;;7.43;2.35;;;17.90;84.90;;;;;;5005649;28;20061;-75
2023/06/29 00:20:57;;;;;;;5.47;2.50;;;17.90;85.00;;;;;;5008318;28;20026;-75
2023/06/29 00:23:24;;;;;;;5.60;2.03;;;17.90;85.10;;;;;;5005999;28;20456;-75
2023/06/29 00:25:52;;;;;;;4.68;2.05;;;17.80;85.20;;;;;;5007617;28;20029;-75
2023/06/29 00:28:18;;;;;;;3.67;2.55;;;17.80;85.30;;;;;;5012332;28;20057;-75
2023/06/29 00:30:43;;;;;;;3.65;2.30;;;17.80;85.50;;;;;;4987591;28;20511;-74
2023/06/29 00:33:09;;;;;;;3.92;2.33;;;17.80;85.60;;;;;;5006525;28;20046;-75
2023/06/29 00:35:35;;;;;;;4.50;2.80;;;17.80;85.50;;;;;;4988510;28;20069;-75
2023/06/29 00:38:00;;;;;;;6.07;2.17;;;17.80;85.40;;;;;;5010783;28;20034;-76
2023/06/29 00:40:26;;;;;;;3.72;2.28;;;17.70;85.50;;;;;;5004874;28;20108;-76
2023/06/29 00:42:54;;;;;;;6.85;2.25;;;17.70;85.60;;;;;;5006859;28;20025;-75
2023/06/29 00:45:19;;;;;;;3.45;2.53;;;17.70;85.70;;;;;;5010652;28;20035;-76
2023/06/29 00:47:46;;;;;;;4.57;2.20;;;17.70;85.60;;;;;;5010107;28;20033;-75
2023/06/29 00:50:12;;;;;;;4.50;2.30;;;17.70;85.80;;;;;;5009706;28;20034;-75
2023/06/29 00:52:37;;;;;;;4.28;2.30;;;17.60;86.00;;;;;;5009349;28;20022;-76
2023/06/29 00:55:04;;;;;;;4.50;2.38;;;17.60;86.20;;;;;;5015760;28;20030;-76
2023/06/29 00:57:29;;;;;;;3.75;2.40;;;17.60;86.30;;;;;;5009947;28;20026;-76
2023/06/29 00:59:59;;;;;;;4.10;1.92;;;17.60;86.30;;;;;;5006741;28;20041;-76
2023/06/29 01:02:25;;;;;;;2.90;2.50;;;17.50;86.10;;;;;;5010098;28;20037;-75
2023/06/29 01:04:51;;;;;;;5.82;2.35;;;17.50;86.10;;;;;;4999073;28;20132;-75
2023/06/29 01:07:52;;;;;;;3.35;1.92;;;17.50;86.10;;;;;;5007508;28;20116;-74
2023/06/29 01:10:24;;;;;;;5.25;2.47;;;17.40;86.20;;;;;;4914706;29;20024;-75
2023/06/29 01:12:51;;;;;;;5.95;2.15;;;17.40;86.10;;;;;;4998656;28;20041;-76
2023/06/29 01:15:18;;;;;;;3.55;2.25;;;17.40;86.20;;;;;;5006142;28;20022;-75
2023/06/29 01:17:45;;;;;;;3.65;2.35;;;17.40;86.20;;;;;;5011182;28;20108;-75
2023/06/29 01:20:14;;;;;;;5.35;2.30;;;17.40;86.40;;;;;;4997587;28;20034;-76
2023/06/29 01:22:48;;;;;;;4.72;2.38;;;17.40;86.50;;;;;;5005641;28;20679;-75
2023/06/29 01:25:14;;;;;;;5.25;2.33;;;17.30;86.60;;;;;;5001677;28;20019;-76
2023/06/29 01:27:43;;;;;;;3.25;2.13;;;17.20;86.70;;;;;;5009324;28;20033;-75
2023/06/29 01:30:13;;;;;;;3.92;2.30;;;17.20;86.90;;;;;;4993894;28;20033;-77
2023/06/29 01:32:39;;;;;;;4.05;2.38;;;17.20;87.00;;;;;;5007366;28;20041;-76
2023/06/29 01:35:09;;;;;;;5.50;2.40;;;17.20;87.20;;;;;;5010673;28;20026;-75
2023/06/29 01:37:51;;;;;;;10.07;2.40;;;17.20;87.30;;;;;;5010678;28;20022;-76
2023/06/29 01:40:20;;;;;;;5.13;2.70;;;17.20;87.30;;;;;;5006029;28;20034;-75
2023/06/29 01:42:48;;;;;;;4.93;2.20;;;17.10;87.20;;;;;;4997379;28;20156;-76
2023/06/29 01:45:16;;;;;;;4.88;2.38;;;17.10;87.30;;;;;;4993550;28;20037;-75
2023/06/29 01:47:42;;;;;;;2.47;2.00;;;17.10;87.20;;;;;;5008876;28;20033;-76
2023/06/29 01:50:09;;;;;;;5.25;2.28;;;17.10;87.30;;;;;;5009906;28;20064;-76
2023/06/29 01:52:35;;;;;;;2.67;2.30;;;17.00;87.40;;;;;;5012787;28;20488;-75
2023/06/29 01:55:01;;;;;;;4.05;2.35;;;17.00;87.50;;;;;;5008120;28;20045;-76
2023/06/29 01:57:26;;;;;;;3.92;1.95;;;16.90;87.50;;;;;;4991894;28;20030;-77
2023/06/29 01:59:52;;;;;;;4.90;2.63;;;16.90;87.60;;;;;;5006475;28;20034;-76
2023/06/29 02:02:18;;;;;;;4.80;2.45;;;16.90;87.70;;;;;;5017987;23;20073;-73
2023/06/29 02:04:44;;;;;;;4.03;2.17;;;16.90;88.00;;;;;;5009813;28;20413;-71
2023/06/29 02:07:10;;;;;;;2.83;2.30;;;16.80;88.00;;;;;;5012018;28;20080;-72
2023/06/29 02:09:35;;;;;;;4.45;2.40;;;16.80;88.20;;;;;;5007473;28;20472;-72
2023/06/29 02:12:02;;;;;;;6.22;2.38;;;16.80;88.20;;;;;;5010312;28;20026;-73
2023/06/29 02:14:28;;;;;;;5.00;2.47;;;16.80;88.20;;;;;;5010059;28;20072;-73
2023/06/29 02:16:54;;;;;;;5.03;2.95;;;16.70;88.30;;;;;;5012267;28;20026;-73
2023/06/29 02:19:20;;;;;;;4.43;2.55;;;16.70;88.40;;;;;;5023571;28;20021;-72
2023/06/29 02:21:45;;;;;;;3.13;2.05;;;16.70;88.40;;;;;;5007436;28;20396;-72
2023/06/29 02:24:11;;;;;;;3.45;2.40;;;16.70;88.40;;;;;;5008687;28;20109;-73
2023/06/29 02:26:37;;;;;;;3.92;2.50;;;16.70;88.40;;;;;;5010023;28;20535;-72
2023/06/29 02:29:02;;;;;;;3.83;2.55;;;16.70;88.50;;;;;;5008310;28;20093;-72
2023/06/29 02:31:28;;;;;;;3.75;2.45;;;16.70;88.50;;;;;;5008084;28;20081;-72
2023/06/29 02:33:54;;;;;;;7.72;2.70;;;16.70;88.70;;;;;;5005199;28;20462;-73
2023/06/29 02:36:21;;;;;;;6.45;2.97;;;16.60;88.80;;;;;;5009158;28;20111;-72
2023/06/29 02:38:47;;;;;;;4.43;2.22;;;16.60;88.80;;;;;;5004328;28;20018;-72
2023/06/29 02:41:13;;;;;;;5.50;2.53;;;16.50;88.90;;;;;;5004623;28;20124;-72
2023/06/29 02:43:39;;;;;;;5.53;2.78;;;16.50;88.90;;;;;;5021577;28;20101;-72
2023/06/29 02:46:04;;;;;;;4.38;2.70;;;16.50;88.90;;;;;;5012794;28;20068;-71
2023/06/29 02:48:30;;;;;;;4.20;2.58;;;16.50;88.90;;;;;;5012859;28;20123;-72
2023/06/29 02:50:56;;;;;;;5.05;2.17;;;16.50;89.00;;;;;;5013895;28;20388;-72
2023/06/29 02:53:21;;;;;;;7.90;3.00;;;16.50;89.20;;;;;;5014255;28;20034;-72
2023/06/29 02:55:47;;;;;;;2.88;2.10;;;16.50;89.30;;;;;;5014238;28;20033;-73
2023/06/29 02:58:13;;;;;;;7.10;2.80;;;16.50;89.40;;;;;;5010815;28;20532;-72
2023/06/29 03:00:38;;;;;;;4.28;2.67;;;16.40;89.50;;;;;;5029769;28;20025;-73
2023/06/29 03:03:04;;;;;;;3.80;2.55;;;16.40;89.50;;;;;;5011500;28;20033;-72
2023/06/29 03:05:30;;;;;;;4.93;2.85;;;16.40;89.50;;;;;;5015487;28;20045;-72
2023/06/29 03:07:55;;;;;;;4.90;2.72;;;16.40;89.40;;;;;;5012090;28;20060;-72
2023/06/29 03:10:21;;;;;;;5.00;2.47;;;16.30;89.30;;;;;;5007525;28;20048;-72
2023/06/29 03:12:47;;;;;;;6.85;2.83;;;16.30;89.40;;;;;;5022898;28;20034;-72
2023/06/29 03:15:12;;;;;;;6.40;2.22;;;16.30;89.30;;;;;;5012901;28;20026;-72
2023/06/29 03:17:38;;;;;;;3.53;2.40;;;16.30;89.20;;;;;;5011618;28;20030;-73
2023/06/29 03:20:06;;;;;;;4.75;2.38;;;16.30;89.20;;;;;;5011545;28;20476;-72
2023/06/29 03:22:32;;;;;;;4.13;2.03;;;16.30;89.30;;;;;;5009653;28;20543;-72
2023/06/29 03:24:57;;;;;;;4.20;2.60;;;16.30;89.20;;;;;;5012697;28;20018;-72
2023/06/29 03:27:23;;;;;;;3.42;1.90;;;16.20;89.20;;;;;;5010609;28;20033;-72
2023/06/29 03:29:51;;;;;;;4.32;2.60;;;16.20;89.20;;;;;;5011070;28;20069;-72
2023/06/29 03:32:17;;;;;;;4.38;2.80;;;16.20;89.40;;;;;;5007778;28;20476;-72
2023/06/29 03:34:42;;;;;;;5.78;2.40;;;16.20;89.60;;;;;;5011399;28;20085;-72
2023/06/29 03:37:08;;;;;;;4.32;2.70;;;16.20;89.60;;;;;;5008878;28;20022;-73
2023/06/29 03:39:34;;;;;;;6.50;3.25;;;16.20;90.00;;;;;;5007513;28;20530;-73
2023/06/29 03:41:59;;;;;;;5.57;2.90;;;16.20;90.30;;;;;;5012538;28;20085;-72
2023/06/29 03:44:25;;;;;;;7.20;3.25;;;16.20;90.70;;;;;;5007810;28;20025;-72
2023/06/29 03:46:51;;;;;;;8.02;3.28;;;16.10;90.90;;;;;;5011438;28;20052;-72
2023/06/29 03:49:17;;;;;;;8.02;3.60;;;16.10;91.00;;;;;;5008646;28;20033;-72
2023/06/29 03:51:43;;;;;;;7.30;3.67;;;16.10;91.00;;;;;;5012076;28;20026;-72
2023/06/29 03:54:08;;;;;;;5.13;3.40;;;16.10;91.10;;;;;;5005896;28;20026;-72
2023/06/29 03:56:34;;;;;;;3.72;2.45;;;16.10;91.10;;;;;;5007954;28;20423;-73
2023/06/29 03:59:00;;;;;;;4.78;2.20;;;16.10;90.80;;;;;;5008682;28;20036;-73
2023/06/29 04:01:25;;;;;;;4.45;2.40;;;16.10;90.30;;;;;;5008504;28;20163;-72
2023/06/29 04:03:51;;;;;;;5.65;3.20;;;16.10;90.20;;;;;;5006593;28;20125;-74
2023/06/29 04:06:17;;;;;;;6.55;3.78;;;16.10;90.20;;;;;;5007708;28;20022;-74
2023/06/29 04:08:42;;;;;;;9.23;4.03;;;16.10;90.80;;;;;;5007017;28;20480;-74
2023/06/29 04:11:09;;;;;;;10.63;4.25;;;16.10;91.10;;;;;;5010864;28;20033;-73
2023/06/29 04:13:35;;;;;;;7.43;3.88;;;16.10;91.40;;;;;;5010847;28;20131;-73
2023/06/29 04:16:01;;;;;;;6.50;3.95;;;16.20;91.60;;;;;;5011506;28;20028;-73
2023/06/29 04:18:26;;;;;;;8.88;4.18;;;16.10;91.70;;;;;;5026764;28;20036;-73
2023/06/29 04:20:53;;;;;;;4.90;4.05;;;16.20;91.90;;;;;;5006082;28;20030;-73
2023/06/29 04:23:19;;;;;;;8.25;4.53;;;16.20;92.00;;;;;;5005807;28;20040;-73
2023/06/29 04:25:44;;;;;;;5.57;3.95;;;16.20;92.00;;;;;;5011006;28;20472;-73
2023/06/29 04:28:13;;;;;;;6.22;3.90;;;16.20;92.00;;;;;;5011557;28;20481;-73
2023/06/29 04:30:43;;;;;;;6.40;3.60;;;16.20;92.00;;;;;;5010789;28;20026;-74
2023/06/29 04:33:14;;;;;;;6.65;3.58;;;16.30;92.00;;;;;;5012370;28;20061;-72
2023/06/29 04:35:44;;;;;;;4.30;3.50;;;16.30;92.00;;;;;;5008496;28;20105;-73
2023/06/29 04:38:11;;;;;;;6.35;3.13;;;16.40;91.90;;;;;;5004387;28;20492;-73
2023/06/29 04:40:37;;;;;;;5.20;3.30;;;16.40;91.90;;;;;;5008376;28;20025;-73
2023/06/29 04:43:04;;;;;;;5.93;2.95;;;16.50;91.70;;;;;;5009027;28;20045;-73
2023/06/29 04:45:31;;;;;;;7.60;3.28;;;16.50;91.50;;;;;;5009648;28;20065;-74
2023/06/29 04:47:57;;;;;;;5.30;2.65;;;16.60;91.10;;;;;;5007668;28;20022;-73
2023/06/29 04:50:26;;;;;;;4.30;2.70;;;16.70;90.80;;;;;;5009470;28;20061;-73
2023/06/29 04:52:53;;;;;;;6.07;2.75;;;16.80;90.30;;;;;;5012645;28;20044;-73
2023/06/29 04:55:18;;;;;;;5.40;3.17;;;16.90;90.10;;;;;;5006888;28;20030;-74
2023/06/29 04:57:44;;;;;;;6.82;2.63;;;17.00;89.70;;;;;;5005749;28;20034;-74
2023/06/29 05:00:11;;;;;;;6.03;3.05;;;17.10;89.40;;;;;;5005166;28;20023;-74
2023/06/29 05:02:38;;;;;;;6.15;2.88;;;17.20;89.00;;;;;;5007742;28;20476;-73
2023/06/29 05:05:04;;;;;;;6.15;3.13;;;17.30;88.40;;;;;;5006753;28;20156;-73
2023/06/29 05:07:30;;;;;;;5.63;2.67;;;17.40;88.10;;;;;;5010525;28;20091;-69
2023/06/29 05:09:55;;;;;;;5.13;3.15;;;17.50;87.50;;;;;;5008863;28;20105;-69
2023/06/29 05:12:21;;;;;;;4.78;2.90;;;17.60;87.00;;;;;;5007276;28;20030;-70
2023/06/29 05:14:47;;;;;;;6.25;2.78;;;17.70;86.30;;;;;;5007256;28;20183;-70
2023/06/29 05:17:12;;;;;;;11.27;3.95;;;17.80;86.00;;;;;;5007729;28;20089;-70
2023/06/29 05:19:38;;;;;;;11.55;3.92;;;17.80;86.50;;;;;;5006928;28;20041;-70
2023/06/29 05:22:04;;;;;;;6.28;3.80;;;17.90;87.40;;;;;;5009742;28;20148;-70
2023/06/29 05:24:30;;;;;;;8.80;3.90;;;18.00;87.80;;;;;;5004664;28;20044;-73
2023/06/29 05:26:55;;;;;;;5.72;3.80;;;18.10;88.00;;;;;;5010687;28;20056;-74
2023/06/29 05:29:21;;;;;;;9.93;4.18;;;18.30;88.00;;;;;;5022984;28;20062;-74
2023/06/29 05:31:47;;;;;;;6.68;4.38;;;18.40;87.70;;;;;;5007874;28;20030;-73
2023/06/29 05:34:12;;;;;;;7.05;4.13;;;18.50;87.10;;;;;;5007516;28;20566;-74
2023/06/29 05:36:38;;;;;;;9.00;4.05;;;18.60;87.10;;;;;;5008926;28;20054;-74
2023/06/29 05:39:04;;;;;;;5.60;3.88;;;18.70;87.00;;;;;;5023867;28;20041;-74
2023/06/29 05:41:31;;;;;;;8.25;4.38;;;18.80;86.80;;;;;;5010938;28;20100;-74
2023/06/29 05:43:56;;;;;;;11.52;4.03;;;18.90;86.50;;;;;;5004200;28;20030;-74
2023/06/29 05:46:22;;;;;;;10.23;3.88;;;19.00;85.90;;;;;;5006740;28;20022;-73
2023/06/29 05:48:48;;;;;;;8.43;4.05;;;19.00;85.60;;;;;;5012454;28;20547;-73
2023/06/29 05:51:14;;;;;;;4.90;3.22;;;19.10;85.60;;;;;;5008897;28;20068;-73
2023/06/29 05:53:39;;;;;;;7.38;3.30;;;19.20;85.30;;;;;;5007160;28;23769;-73
2023/06/29 05:56:05;;;;;;;15.63;5.15;;;19.30;85.00;;;;;;5008978;28;20026;-73
2023/06/29 05:58:31;;;;;;;12.35;4.13;;;19.30;84.40;;;;;;5025136;28;20029;-73
2023/06/29 06:00:56;;;;;;;9.52;3.67;;;19.40;84.50;;;;;;5024149;28;20053;-73
2023/06/29 06:03:23;;;;;;;8.10;3.80;;;19.50;84.50;;;;;;5008361;28;20029;-73
2023/06/29 06:05:49;;;;;;;9.50;3.92;;;19.50;84.00;;;;;;5010020;28;20460;-73
2023/06/29 06:08:15;;;;;;;6.78;3.35;;;19.60;84.00;;;;;;5009524;28;20029;-73
2023/06/29 06:10:40;;;;;;;8.18;3.28;;;19.60;83.80;;;;;;5011923;28;20484;-71
2023/06/29 06:13:06;;;;;;;4.93;3.10;;;19.70;83.50;;;;;;5004067;28;20651;-72
2023/06/29 06:15:31;;;;;;;4.60;2.78;;;19.80;83.00;;;;;;5008266;28;20034;-74
2023/06/29 06:17:57;;;;;;;7.15;2.78;;;19.80;83.00;;;;;;5011464;28;20033;-73
2023/06/29 06:20:23;;;;;;;5.68;2.85;;;19.90;82.80;;;;;;5001803;28;20049;-73
2023/06/29 06:22:48;;;;;;;6.45;3.13;;;20.00;82.70;;;;;;5002166;28;20033;-74
2023/06/29 06:25:17;;;;;;;4.60;3.10;;;20.10;82.50;;;;;;5007476;28;20096;-74
2023/06/29 06:27:43;;;;;;;6.57;2.75;;;20.10;82.30;;;;;;5005100;28;20034;-73
2023/06/29 06:30:09;;;;;;;10.50;3.05;;;20.30;82.00;;;;;;5002445;28;20184;-73
2023/06/29 06:32:38;;;;;;;4.63;2.55;;;20.40;81.70;;;;;;5001750;28;20041;-75
2023/06/29 06:35:07;;;;;;;3.85;2.35;;;20.40;81.10;;;;;;5003319;28;20088;-74
2023/06/29 06:37:34;;;;;;;6.22;3.22;;;20.50;81.10;;;;;;5004505;28;20064;-73
2023/06/29 06:40:00;;;;;;;6.35;3.25;;;20.50;80.60;;;;;;5002608;28;20121;-73
2023/06/29 06:42:26;;;;;;;7.15;3.53;;;20.60;80.30;;;;;;5004261;28;20156;-73
2023/06/29 06:44:54;;;;;;;4.82;3.05;;;20.60;80.20;;;;;;5005399;28;20034;-73
2023/06/29 06:47:20;;;;;;;7.50;3.45;;;20.60;80.10;;;;;;5008485;28;20025;-73
2023/06/29 06:49:47;;;;;;;7.18;2.92;;;20.70;80.10;;;;;;5002418;28;20389;-74
2023/06/29 06:52:12;;;;;;;5.20;3.33;;;20.80;80.00;;;;;;5003297;28;20046;-74
2023/06/29 06:54:38;;;;;;;5.68;2.95;;;20.80;79.70;;;;;;5002373;28;20018;-74
2023/06/29 06:57:04;;;;;;;8.07;3.47;;;20.80;79.50;;;;;;5000026;28;20043;-73
2023/06/29 06:59:29;;;;;;;4.78;2.80;;;20.90;79.60;;;;;;4998427;28;20092;-73
2023/06/29 07:01:55;;;;;;;7.78;2.90;;;21.00;79.50;;;;;;5002816;28;20034;-73
2023/06/29 07:04:21;;;;;;;7.90;2.95;;;21.10;80.30;;;;;;5004592;28;20038;-77
2023/06/29 07:06:46;;;;;;;6.05;3.42;;;21.20;78.90;;;;;;5005642;28;20106;-73
2023/06/29 07:09:12;;;;;;;5.03;2.85;;;21.20;78.50;;;;;;5003627;28;20029;-73
2023/06/29 07:11:38;;;;;;;8.48;3.30;;;21.30;78.70;;;;;;5006238;28;20033;-73
2023/06/29 07:14:04;;;;;;;6.38;2.80;;;21.30;78.20;;;;;;5000048;28;20029;-74
2023/06/29 07:16:30;;;;;;;5.70;3.13;;;21.40;78.00;;;;;;5003091;28;20400;-74
2023/06/29 07:19:08;;;;;;;6.50;2.92;;;21.50;77.60;;;;;;5005864;28;20026;-73
2023/06/29 07:21:34;;;;;;;4.68;2.95;;;21.50;76.90;;;;;;5005077;28;20101;-74
2023/06/29 07:23:59;;;;;;;6.20;3.13;;;21.60;77.10;;;;;;5006111;28;20032;-73
2023/06/29 07:26:26;;;;;;;3.95;2.70;;;21.60;77.00;;;;;;5006905;28;20026;-74
2023/06/29 07:28:52;;;;;;;6.15;3.08;;;21.60;76.90;;;;;;5003777;28;20384;-73
2023/06/29 07:31:18;;;;;;;4.47;2.50;;;21.60;76.70;;;;;;5007177;28;20030;-73
2023/06/29 07:33:43;;;;;;;4.35;2.75;;;21.70;76.80;;;;;;5007340;28;20064;-75
2023/06/29 07:36:09;;;;;;;6.55;3.08;;;21.80;76.40;;;;;;5009569;28;20034;-73
2023/06/29 07:38:35;;;;;;;4.93;2.30;;;21.90;75.80;;;;;;5007268;28;20025;-73
2023/06/29 07:41:03;;;;;;;5.10;2.30;;;22.00;76.20;;;;;;5009206;28;20033;-73
2023/06/29 07:43:28;;;;;;;6.88;2.50;;;22.10;75.90;;;;;;5005442;28;20068;-72
2023/06/29 07:45:55;;;;;;;8.43;2.75;;;22.30;75.70;;;;;;5008545;28;20047;-73
2023/06/29 07:48:21;;;;;;;8.30;2.70;;;22.40;75.30;;;;;;5008563;28;20053;-73
2023/06/29 07:50:46;;;;;;;7.53;3.03;;;22.50;75.00;;;;;;5011539;28;20061;-73
2023/06/29 07:53:12;;;;;;;6.45;3.10;;;22.50;74.60;;;;;;5008120;28;20029;-73
2023/06/29 07:55:37;;;;;;;5.05;2.58;;;22.50;74.50;;;;;;5007135;28;20030;-73
2023/06/29 07:58:03;;;;;;;5.68;2.60;;;22.60;74.30;;;;;;5008559;28;20029;-73
2023/06/29 08:00:29;;;;;;;7.25;2.60;;;22.60;74.50;;;;;;5010185;28;20034;-73
2023/06/29 08:02:54;;;;;;;8.63;3.47;;;22.70;74.40;;;;;;5008035;28;20041;-73
2023/06/29 08:05:21;;;;;;;7.38;2.67;;;22.70;74.70;;;;;;5007645;28;20041;-73
2023/06/29 08:07:47;;;;;;;8.02;2.70;;;22.70;75.00;;;;;;5035756;22;20054;-73
2023/06/29 08:10:14;;;;;;;8.48;2.45;;;22.80;74.60;;;;;;5008222;28;20400;-75
2023/06/29 08:12:39;;;;;;;11.38;3.00;;;22.80;74.70;;;;;;5020805;28;20014;-75
2023/06/29 08:15:05;;;;;;;4.45;2.47;;;22.90;75.00;;;;;;5005226;28;20088;-75
2023/06/29 08:17:31;;;;;;;3.97;2.42;;;23.10;75.20;;;;;;5025454;28;20048;-74
2023/06/29 08:19:57;;;;;;;7.57;3.13;;;23.30;75.20;;;;;;5027327;28;20491;-74
2023/06/29 08:22:22;;;;;;;7.05;2.30;;;23.40;74.70;;;;;;5001668;28;20117;-74
2023/06/29 08:24:48;;;;;;;6.22;3.05;;;23.50;74.70;;;;;;5022348;28;20492;-75
2023/06/29 08:27:13;;;;;;;5.82;2.42;;;23.60;74.60;;;;;;5004870;28;20061;-75
2023/06/29 08:29:40;;;;;;;6.70;2.95;;;23.70;73.90;;;;;;5025438;28;20054;-74
2023/06/29 08:32:07;;;;;;;6.00;2.67;;;23.80;73.50;;;;;;5019349;28;20535;-74
2023/06/29 08:34:33;;;;;;;4.03;2.30;;;24.00;73.30;;;;;;5016069;28;20057;-75
2023/06/29 08:36:58;;;;;;;8.18;2.45;;;24.10;73.20;;;;;;5015508;28;20061;-70
2023/06/29 08:39:24;;;;;;;3.72;2.20;;;24.20;73.50;;;;;;5017403;28;20527;-75
2023/06/29 08:41:50;;;;;;;5.05;2.72;;;24.20;73.00;;;;;;5021152;28;20048;-75
2023/06/29 08:44:16;;;;;;;3.90;2.50;;;24.30;72.50;;;;;;5019638;28;20021;-74
2023/06/29 08:46:45;;;;;;;7.72;2.95;;;24.50;72.50;;;;;;5028255;28;20594;-74
2023/06/29 08:49:12;;;;;;;4.38;2.80;;;24.50;72.00;;;;;;5021275;28;20026;-74
2023/06/29 08:51:42;;;;;;;4.10;2.28;;;24.60;71.90;;;;;;5009011;28;20037;-74
2023/06/29 08:54:09;;;;;;;6.38;2.90;;;24.70;71.40;;;;;;5021981;28;20120;-75
2023/06/29 08:56:35;;;;;;;5.38;2.83;;;24.80;71.60;;;;;;5014543;28;20026;-74
2023/06/29 08:59:01;;;;;;;5.68;2.88;;;24.80;71.50;;;;;;5020846;28;20399;-74
2023/06/29 09:01:28;;;;;;;5.88;2.50;;;24.80;71.20;;;;;;5024551;28;20036;-74
2023/06/29 09:03:54;;;;;;;3.90;2.13;;;24.80;70.60;;;;;;5020693;28;20057;-75
2023/06/29 09:06:20;;;;;;;3.50;2.28;;;24.90;70.30;;;;;;5015185;28;20988;-74
2023/06/29 09:08:45;;;;;;;5.32;3.28;;;24.90;69.90;;;;;;5019524;28;20025;-75
2023/06/29 09:11:11;;;;;;;4.85;2.55;;;24.90;69.30;;;;;;5015407;28;20176;-75
2023/06/29 09:13:37;;;;;;;5.78;2.40;;;25.00;69.30;;;;;;5016979;28;20029;-73
2023/06/29 09:16:03;;;;;;;4.45;2.03;;;25.10;69.10;;;;;;5021210;28;20033;-74
2023/06/29 09:18:31;;;;;;;3.70;2.30;;;25.10;67.70;;;;;;5006971;28;20119;-74
2023/06/29 09:20:57;;;;;;;4.82;1.90;;;25.10;67.20;;;;;;5001727;28;20034;-74
2023/06/29 09:23:25;;;;;;;3.47;2.05;;;25.10;67.80;;;;;;5025907;28;20421;-75
2023/06/29 09:25:54;;;;;;;5.18;2.42;;;25.10;68.00;;;;;;5024411;28;20071;-74
2023/06/29 09:28:19;;;;;;;4.05;2.47;;;25.10;68.10;;;;;;5020530;28;20049;-74
2023/06/29 09:30:46;;;;;;;3.88;2.20;;;25.20;67.60;;;;;;5022935;28;20053;-75
2023/06/29 09:33:13;;;;;;;4.25;2.08;;;25.20;67.30;;;;;;5021590;28;20025;-74
2023/06/29 09:35:46;;;;;;;6.18;2.38;;;25.20;66.90;;;;;;5019002;28;20025;-74
2023/06/29 09:38:12;;;;;;;3.88;2.28;;;25.20;66.60;;;;;;5021032;28;20574;-74
2023/06/29 09:40:52;;;;;;;4.85;2.25;;;25.30;66.00;;;;;;5011385;28;20112;-74
2023/06/29 09:43:26;;;;;;;3.33;2.30;;;25.20;66.00;;;;;;5020431;28;20036;-75
2023/06/29 09:45:52;;;;;;;4.72;2.20;;;25.20;65.50;;;;;;5026709;28;20531;-75
2023/06/29 09:48:21;;;;;;;3.55;2.03;;;25.30;65.40;;;;;;5023897;28;20052;-74
2023/06/29 09:50:53;;;;;;;3.88;2.13;;;25.30;65.70;;;;;;5020109;28;20395;-75
2023/06/29 09:53:28;;;;;;;6.22;2.08;;;25.30;65.90;;;;;;5006513;28;20026;-74
2023/06/29 09:55:57;;;;;;;4.28;2.45;;;25.40;66.30;;;;;;5018451;28;20411;-74
2023/06/29 09:58:23;;;;;;;5.93;2.55;;;25.50;65.90;;;;;;5021919;28;20036;-74
2023/06/29 10:00:49;;;;;;;6.22;2.22;;;25.60;65.90;;;;;;5003711;28;20029;-74
2023/06/29 10:03:15;;;;;;;7.95;2.58;;;25.70;65.10;;;;;;5001813;28;20034;-74
2023/06/29 10:05:40;;;;;;;4.15;2.70;;;25.80;65.00;;;;;;5023024;28;20029;-74
2023/06/29 10:08:10;;;;;;;4.43;2.38;;;25.80;64.80;;;;;;5017017;28;20033;-73
2023/06/29 10:10:36;;;;;;;7.30;2.67;;;25.90;64.50;;;;;;5015334;28;20017;-75
2023/06/29 10:13:04;;;;;;;4.60;2.00;;;25.90;64.40;;;;;;5013339;28;20037;-75
2023/06/29 10:15:34;;;;;;;5.30;2.38;;;26.00;64.20;;;;;;5019088;28;20083;-75
2023/06/29 10:18:04;;;;;;;4.18;2.42;;;26.10;64.20;;;;;;5000890;28;20041;-74
2023/06/29 10:20:32;;;;;;;4.53;2.58;;;26.10;64.00;;;;;;4999773;28;20033;-73
2023/06/29 10:23:01;;;;;;;5.68;2.30;;;26.20;63.70;;;;;;5014684;28;20133;-73
2023/06/29 10:25:28;;;;;;;7.90;2.72;;;26.20;63.50;;;;;;5022300;28;20329;-74
2023/06/29 10:27:55;;;;;;;3.28;2.10;;;26.30;63.90;;;;;;5017310;28;20034;-74
2023/06/29 10:30:23;;;;;;;4.32;2.45;;;26.40;63.80;;;;;;5017087;28;20025;-74
2023/06/29 10:32:53;;;;;;;4.43;2.60;;;26.40;63.40;;;;;;5014758;28;20578;-75
2023/06/29 10:35:24;;;;;;;4.82;3.35;;;26.40;63.70;;;;;;5000817;28;20068;-75
2023/06/29 10:37:57;;;;;;;5.20;2.20;;;26.50;63.70;;;;;;5012695;28;20041;-75
2023/06/29 10:40:27;;;;;;;4.13;2.45;;;26.60;63.20;;;;;;5014916;28;20124;-75
2023/06/29 10:42:56;;;;;;;4.78;2.60;;;26.60;62.90;;;;;;5020085;28;20445;-75
2023/06/29 10:45:21;;;;;;;3.90;2.13;;;26.50;62.70;;;;;;5018347;28;20121;-75
2023/06/29 10:47:56;;;;;;;4.10;2.88;;;26.40;63.00;;;;;;5004700;28;20109;-75
2023/06/29 10:50:27;;;;;;;4.03;2.38;;;26.30;63.10;;;;;;5018789;28;20032;-74
2023/06/29 10:52:59;;;;;;;5.15;2.38;;;26.30;63.70;;;;;;5019230;28;20038;-74
2023/06/29 10:55:38;;;;;;;4.93;2.60;;;26.40;64.10;;;;;;5014785;28;20038;-74
2023/06/29 10:58:14;;;;;;;5.32;2.60;;;26.50;63.80;;;;;;5020702;28;20064;-75
2023/06/29 11:00:40;;;;;;;4.38;2.42;;;26.60;63.70;;;;;;5024061;28;20027;-74
2023/06/29 11:03:08;;;;;;;4.15;2.67;;;26.60;63.00;;;;;;5018710;28;20464;-75
2023/06/29 11:05:35;;;;;;;6.20;2.45;;;26.70;63.00;;;;;;5017800;28;20049;-74
2023/06/29 11:08:01;;;;;;;5.47;2.58;;;26.80;63.00;;;;;;5024468;28;20507;-75
2023/06/29 11:10:27;;;;;;;6.07;2.53;;;27.00;63.10;;;;;;5025434;28;20038;-75
2023/06/29 11:12:55;;;;;;;6.22;2.75;;;27.00;62.80;;;;;;5005196;28;20032;-76
2023/06/29 11:15:23;;;;;;;5.95;3.10;;;27.10;62.60;;;;;;5019766;28;20064;-75
2023/06/29 11:17:50;;;;;;;5.18;2.80;;;27.10;62.60;;;;;;5004868;28;20124;-74
2023/06/29 11:20:17;;;;;;;5.55;2.42;;;27.30;62.60;;;;;;5020228;28;20636;-75
2023/06/29 11:22:45;;;;;;;4.28;2.70;;;27.30;62.60;;;;;;5015676;28;21663;-74
2023/06/29 11:25:12;;;;;;;4.55;3.40;;;27.40;62.60;;;;;;5001005;28;20056;-74
2023/06/29 11:27:37;;;;;;;4.60;3.20;;;27.40;62.30;;;;;;5022007;28;20030;-73
2023/06/29 11:30:09;;;;;;;5.07;2.80;;;27.50;62.40;;;;;;5024404;28;20483;-75
2023/06/29 11:32:35;;;;;;;4.97;3.10;;;27.60;62.20;;;;;;5009707;28;20033;-75
2023/06/29 11:35:03;;;;;;;5.10;2.78;;;27.60;62.10;;;;;;5002455;28;20021;-75
2023/06/29 11:37:29;;;;;;;6.57;3.10;;;27.60;62.10;;;;;;5019391;28;20029;-75
2023/06/29 11:39:55;;;;;;;4.00;2.85;;;27.70;62.10;;;;;;5027070;28;20057;-75
2023/06/29 11:42:23;;;;;;;4.75;2.88;;;27.70;61.80;;;;;;5022261;28;20049;-75
2023/06/29 11:44:50;;;;;;;4.15;3.03;;;27.80;61.80;;;;;;5008454;28;20104;-75
2023/06/29 11:47:16;;;;;;;5.43;3.33;;;27.80;61.40;;;;;;5022015;28;20477;-74
2023/06/29 11:49:42;;;;;;;5.28;2.92;;;27.90;61.70;;;;;;5020713;28;20026;-74
2023/06/29 11:52:08;;;;;;;7.18;3.00;;;28.10;62.00;;;;;;5024433;28;20440;-74
2023/06/29 11:54:35;;;;;;;6.57;3.22;;;28.20;61.80;;;;;;5020315;28;20053;-74
2023/06/29 11:57:00;;;;;;;6.72;3.03;;;28.40;61.60;;;;;;5004917;28;20034;-74
2023/06/29 11:59:26;;;;;;;5.30;3.00;;;28.40;61.00;;;;;;5001192;28;20111;-74
2023/06/29 12:01:52;;;;;;;4.72;3.22;;;28.40;61.00;;;;;;5022832;28;20429;-73
2023/06/29 12:04:18;;;;;;;5.60;3.00;;;28.50;60.90;;;;;;5023402;28;20057;-74
2023/06/29 12:06:54;;;;;;;8.60;3.83;;;28.50;60.60;;;;;;5017006;28;20033;-74
2023/06/29 12:09:20;;;;;;;4.30;3.05;;;28.40;60.70;;;;;;5025198;28;20075;-70
2023/06/29 12:11:59;;;;;;;10.95;3.15;;;28.40;60.90;;;;;;5016989;28;20511;-73
2023/06/29 12:14:35;;;;;;;6.10;2.92;;;28.40;61.30;;;;;;5023109;28;20109;-72
2023/06/29 12:17:01;;;;;;;9.10;3.55;;;28.30;62.70;;;;;;5007370;28;20040;-71
2023/06/29 12:19:38;;;;;;;7.63;3.80;;;28.20;61.60;;;;;;5026644;28;20422;-72
2023/06/29 12:22:23;;;;;;;7.53;3.15;;;28.20;61.70;;;;;;5025942;28;20088;-73
2023/06/29 12:24:50;;;;;;;6.18;3.55;;;28.10;61.80;;;;;;5007321;28;20037;-73
2023/06/29 12:27:16;;;;;;;7.80;3.72;;;28.10;61.60;;;;;;5022774;28;20025;-75
2023/06/29 12:29:42;;;;;;;6.18;3.63;;;28.00;61.60;;;;;;5028164;28;20109;-75
2023/06/29 12:32:07;;;;;;;7.68;3.40;;;28.00;61.50;;;;;;5025157;28;20456;-74
2023/06/29 12:34:33;;;;;;;12.52;3.47;;;28.10;62.00;;;;;;5028054;28;20065;-75
2023/06/29 12:37:02;;;;;;;7.05;3.25;;;28.20;61.60;;;;;;5021232;28;20053;-74
2023/06/29 12:39:28;;;;;;;4.10;2.88;;;28.20;61.40;;;;;;5020308;28;20172;-74
2023/06/29 12:41:55;;;;;;;11.07;3.95;;;28.20;60.70;;;;;;5021997;28;20109;-75
2023/06/29 12:44:21;;;;;;;4.90;3.42;;;28.30;60.80;;;;;;5021516;28;20372;-74